PYRO2: Pryor Creek

                                SHEF ID:       PYRO2     Pryor Creek
STATION TYPE:
Regulating: Stage = 21.00, Flow = 3244

PRECIP STAGE RIV-FLOW VOLTAGE BAT-LOAD
in ft cfs volt volt
Ccp-Rev Ccp-Rev Ccp-Rev Ccp-Rev Ccp-Rev
(America/Chicago)
06/16 00:00 0.00 17.61 2076 12.73 12.65
06/16 01:00 0.00 17.52 2052 12.73 12.65
06/16 02:00 0.00 17.45 2035 12.73 12.57
06/16 03:00 0.00 17.40 2023 12.73 12.57
06/16 04:00 0.00 17.36 2014 12.73 12.57
06/16 05:00 0.00 17.34 2009 12.65 12.57
06/16 06:00 0.00 17.32 2004 12.65 12.57
06/16 07:00 0.00 17.32 2004 12.73 12.57
06/16 08:00 0.00 17.32 2004 13.13 12.81
06/16 09:00 0.00 17.32 2004 14.00 13.44
06/16 10:00 0.00 17.33 2007 14.00 13.44
06/16 11:00 0.00 17.33 2007 13.84 13.29
06/16 12:00 0.01 17.34 2009 13.29 13.21
06/16 13:00 0.00 17.35 2011 13.21 13.05
06/16 14:00 0.00 17.36 2014 13.21 13.13
06/16 15:00 0.00 17.36 2014 13.21 12.97
06/16 16:00 0.00 17.38 2019 13.05 13.05
06/16 17:00 0.00 17.34 2009 12.97 12.97
06/16 18:00 0.00 17.30 2000 12.89 12.89
06/16 19:00 0.00 17.22 1981 12.97 12.81
06/16 20:00 0.00 17.08 1947 13.05 12.89
06/16 21:00 0.00 16.86 1895 12.81 12.73
06/16 22:00 0.00 16.55 1821 12.81 12.65
06/16 23:00 0.00 16.12 1719 12.81 12.65
Data processed at Tue 17Jun2025 04:43 GMT

Parsing this webpage?

Checkout our new Data API! CWMSDataAPI (CDA)

Timeseries IDs (TSIDs)

TSIDs used from left to right in the data table
PRYO.Precip-Inc.Total.1Hour.1Hour.Ccp-Rev
PRYO.Stage.Inst.1Hour.0.Ccp-Rev
PRYO.Flow.Inst.1Hour.0.Ccp-Rev
PRYO.Volt-Battery.Inst.1Hour.0.Ccp-Rev
PRYO.Volt-Battery Load.Inst.1Hour.0.Ccp-Rev

                            

All information presented herein is the property of the government of the United States of America and may be revised or deleted at any time without prior notice. Dissemination of this information without the expressed written consent of the Public Affairs Office, Tulsa District U.S. Army Corps of Engineers is strictly prohibited. These data are gathered electronically and, as presented, have NOT undergone any form of quality control. These data are NOT guaranteed to be valid or correct.